sensor_id;sensor_type;location;lat;lon;timestamp;P1;durP1;ratioP1;P2;durP2;ratioP2
3683;SDS011;1858;48.716;9.648;2023-02-11T00:01:29;22.03;;;8.43;;
3683;SDS011;1858;48.716;9.648;2023-02-11T00:04:00;11.93;;;7.93;;
3683;SDS011;1858;48.716;9.648;2023-02-11T00:06:30;19.70;;;9.13;;
3683;SDS011;1858;48.716;9.648;2023-02-11T00:09:00;23.17;;;10.50;;
3683;SDS011;1858;48.716;9.648;2023-02-11T00:11:29;22.23;;;10.10;;
3683;SDS011;1858;48.716;9.648;2023-02-11T00:13:59;18.30;;;9.40;;
3683;SDS011;1858;48.716;9.648;2023-02-11T00:16:29;13.77;;;6.57;;
3683;SDS011;1858;48.716;9.648;2023-02-11T00:18:58;22.10;;;10.37;;
3683;SDS011;1858;48.716;9.648;2023-02-11T00:21:28;19.53;;;8.60;;
3683;SDS011;1858;48.716;9.648;2023-02-11T00:23:56;9.37;;;7.10;;
3683;SDS011;1858;48.716;9.648;2023-02-11T00:26:29;13.97;;;7.63;;
3683;SDS011;1858;48.716;9.648;2023-02-11T00:28:59;14.73;;;7.40;;
3683;SDS011;1858;48.716;9.648;2023-02-11T00:31:28;15.50;;;8.13;;
3683;SDS011;1858;48.716;9.648;2023-02-11T00:33:56;14.13;;;7.97;;
3683;SDS011;1858;48.716;9.648;2023-02-11T00:36:25;13.97;;;7.07;;
3683;SDS011;1858;48.716;9.648;2023-02-11T00:38:55;22.00;;;9.50;;
3683;SDS011;1858;48.716;9.648;2023-02-11T00:41:24;16.10;;;7.90;;
3683;SDS011;1858;48.716;9.648;2023-02-11T00:43:53;11.77;;;8.10;;
3683;SDS011;1858;48.716;9.648;2023-02-11T00:46:21;7.00;;;6.37;;
3683;SDS011;1858;48.716;9.648;2023-02-11T00:48:50;8.97;;;5.60;;
3683;SDS011;1858;48.716;9.648;2023-02-11T00:51:20;15.97;;;8.47;;
3683;SDS011;1858;48.716;9.648;2023-02-11T00:53:48;14.50;;;7.43;;
3683;SDS011;1858;48.716;9.648;2023-02-11T00:56:17;15.73;;;9.50;;
3683;SDS011;1858;48.716;9.648;2023-02-11T00:58:45;14.20;;;6.80;;
3683;SDS011;1858;48.716;9.648;2023-02-11T01:01:14;21.13;;;8.57;;
3683;SDS011;1858;48.716;9.648;2023-02-11T01:03:42;11.97;;;7.37;;
3683;SDS011;1858;48.716;9.648;2023-02-11T01:06:10;8.80;;;7.87;;
3683;SDS011;1858;48.716;9.648;2023-02-11T01:08:39;13.47;;;8.67;;
3683;SDS011;1858;48.716;9.648;2023-02-11T01:11:17;11.63;;;7.60;;
3683;SDS011;1858;48.716;9.648;2023-02-11T01:13:47;11.10;;;5.47;;
3683;SDS011;1858;48.716;9.648;2023-02-11T01:16:16;16.73;;;8.70;;
3683;SDS011;1858;48.716;9.648;2023-02-11T01:18:46;11.23;;;7.80;;
3683;SDS011;1858;48.716;9.648;2023-02-11T01:21:15;16.60;;;9.63;;
3683;SDS011;1858;48.716;9.648;2023-02-11T01:23:43;16.33;;;7.10;;
3683;SDS011;1858;48.716;9.648;2023-02-11T01:26:12;17.60;;;11.57;;
3683;SDS011;1858;48.716;9.648;2023-02-11T01:28:41;15.67;;;8.80;;
3683;SDS011;1858;48.716;9.648;2023-02-11T01:31:09;12.17;;;9.90;;
3683;SDS011;1858;48.716;9.648;2023-02-11T01:33:38;10.47;;;7.70;;
3683;SDS011;1858;48.716;9.648;2023-02-11T01:36:27;13.97;;;7.93;;
3683;SDS011;1858;48.716;9.648;2023-02-11T01:38:55;11.57;;;6.60;;
3683;SDS011;1858;48.716;9.648;2023-02-11T01:41:23;15.70;;;8.13;;
3683;SDS011;1858;48.716;9.648;2023-02-11T01:43:52;18.83;;;11.10;;
3683;SDS011;1858;48.716;9.648;2023-02-11T01:46:30;22.03;;;7.27;;
3683;SDS011;1858;48.716;9.648;2023-02-11T01:51:57;15.63;;;6.70;;
3683;SDS011;1858;48.716;9.648;2023-02-11T01:54:29;19.67;;;9.53;;
3683;SDS011;1858;48.716;9.648;2023-02-11T01:57:17;12.23;;;8.43;;
3683;SDS011;1858;48.716;9.648;2023-02-11T02:02:20;9.67;;;7.63;;
3683;SDS011;1858;48.716;9.648;2023-02-11T02:04:56;22.03;;;7.30;;
3683;SDS011;1858;48.716;9.648;2023-02-11T02:07:27;11.70;;;7.93;;
3683;SDS011;1858;48.716;9.648;2023-02-11T02:10:00;14.60;;;7.30;;
3683;SDS011;1858;48.716;9.648;2023-02-11T02:12:29;16.03;;;7.90;;
3683;SDS011;1858;48.716;9.648;2023-02-11T02:15:17;15.00;;;8.30;;
3683;SDS011;1858;48.716;9.648;2023-02-11T02:18:00;13.23;;;9.20;;
3683;SDS011;1858;48.716;9.648;2023-02-11T02:23:14;13.97;;;7.00;;
3683;SDS011;1858;48.716;9.648;2023-02-11T02:26:05;14.40;;;6.53;;
3683;SDS011;1858;48.716;9.648;2023-02-11T02:39:30;18.90;;;7.67;;
3683;SDS011;1858;48.716;9.648;2023-02-11T02:42:01;15.10;;;8.90;;
3683;SDS011;1858;48.716;9.648;2023-02-11T02:44:31;10.20;;;5.97;;
3683;SDS011;1858;48.716;9.648;2023-02-11T02:47:01;11.90;;;7.60;;
3683;SDS011;1858;48.716;9.648;2023-02-11T02:49:29;12.50;;;7.30;;
3683;SDS011;1858;48.716;9.648;2023-02-11T03:11:09;18.70;;;9.00;;
3683;SDS011;1858;48.716;9.648;2023-02-11T03:13:38;12.53;;;6.20;;
3683;SDS011;1858;48.716;9.648;2023-02-11T03:16:14;16.37;;;8.07;;
3683;SDS011;1858;48.716;9.648;2023-02-11T03:19:07;9.50;;;7.07;;
3683;SDS011;1858;48.716;9.648;2023-02-11T03:21:52;13.83;;;7.23;;
3683;SDS011;1858;48.716;9.648;2023-02-11T03:24:31;13.77;;;9.53;;
3683;SDS011;1858;48.716;9.648;2023-02-11T03:32:42;17.60;;;9.97;;
3683;SDS011;1858;48.716;9.648;2023-02-11T03:38:47;31.63;;;9.00;;
3683;SDS011;1858;48.716;9.648;2023-02-11T03:40:35;13.67;;;9.80;;
3683;SDS011;1858;48.716;9.648;2023-02-11T03:43:07;15.83;;;10.10;;
3683;SDS011;1858;48.716;9.648;2023-02-11T03:45:37;17.27;;;7.60;;
3683;SDS011;1858;48.716;9.648;2023-02-11T03:48:21;11.00;;;7.83;;
3683;SDS011;1858;48.716;9.648;2023-02-11T03:50:53;12.57;;;9.97;;
3683;SDS011;1858;48.716;9.648;2023-02-11T03:53:23;12.20;;;7.20;;
3683;SDS011;1858;48.716;9.648;2023-02-11T03:55:53;15.07;;;8.83;;
3683;SDS011;1858;48.716;9.648;2023-02-11T03:58:23;14.03;;;7.90;;
3683;SDS011;1858;48.716;9.648;2023-02-11T04:00:51;14.57;;;10.10;;
3683;SDS011;1858;48.716;9.648;2023-02-11T04:03:20;16.63;;;9.13;;
3683;SDS011;1858;48.716;9.648;2023-02-11T04:05:48;14.83;;;8.87;;
3683;SDS011;1858;48.716;9.648;2023-02-11T04:08:17;16.33;;;7.60;;
3683;SDS011;1858;48.716;9.648;2023-02-11T04:10:45;11.80;;;7.43;;
3683;SDS011;1858;48.716;9.648;2023-02-11T04:13:13;14.20;;;8.50;;
3683;SDS011;1858;48.716;9.648;2023-02-11T04:15:42;18.63;;;7.43;;
3683;SDS011;1858;48.716;9.648;2023-02-11T04:18:10;13.83;;;9.50;;
3683;SDS011;1858;48.716;9.648;2023-02-11T04:20:39;13.13;;;7.70;;
3683;SDS011;1858;48.716;9.648;2023-02-11T04:23:07;21.70;;;8.43;;
3683;SDS011;1858;48.716;9.648;2023-02-11T04:25:35;13.27;;;7.63;;
3683;SDS011;1858;48.716;9.648;2023-02-11T04:28:04;23.90;;;11.37;;
3683;SDS011;1858;48.716;9.648;2023-02-11T04:30:32;23.73;;;10.27;;
3683;SDS011;1858;48.716;9.648;2023-02-11T04:33:02;14.70;;;6.37;;
3683;SDS011;1858;48.716;9.648;2023-02-11T04:35:30;22.17;;;10.40;;
3683;SDS011;1858;48.716;9.648;2023-02-11T04:37:59;13.73;;;8.40;;
3683;SDS011;1858;48.716;9.648;2023-02-11T04:40:27;20.90;;;8.80;;
3683;SDS011;1858;48.716;9.648;2023-02-11T04:42:55;16.30;;;8.27;;
3683;SDS011;1858;48.716;9.648;2023-02-11T04:45:24;16.67;;;8.53;;
3683;SDS011;1858;48.716;9.648;2023-02-11T04:47:52;16.60;;;9.00;;
3683;SDS011;1858;48.716;9.648;2023-02-11T04:50:21;18.60;;;7.50;;
3683;SDS011;1858;48.716;9.648;2023-02-11T04:52:49;16.87;;;8.23;;
3683;SDS011;1858;48.716;9.648;2023-02-11T04:55:17;24.73;;;8.70;;
3683;SDS011;1858;48.716;9.648;2023-02-11T04:57:46;17.43;;;8.40;;
3683;SDS011;1858;48.716;9.648;2023-02-11T05:00:16;15.63;;;7.50;;
3683;SDS011;1858;48.716;9.648;2023-02-11T05:02:46;14.13;;;5.97;;
3683;SDS011;1858;48.716;9.648;2023-02-11T05:05:14;18.73;;;10.10;;
3683;SDS011;1858;48.716;9.648;2023-02-11T05:07:43;11.83;;;6.60;;
3683;SDS011;1858;48.716;9.648;2023-02-11T05:10:11;16.03;;;10.10;;
3683;SDS011;1858;48.716;9.648;2023-02-11T05:12:39;14.60;;;7.03;;
3683;SDS011;1858;48.716;9.648;2023-02-11T05:15:08;14.40;;;7.30;;
3683;SDS011;1858;48.716;9.648;2023-02-11T05:17:36;8.47;;;4.80;;
3683;SDS011;1858;48.716;9.648;2023-02-11T05:20:05;14.43;;;8.27;;
3683;SDS011;1858;48.716;9.648;2023-02-11T05:22:34;19.20;;;9.50;;
3683;SDS011;1858;48.716;9.648;2023-02-11T05:25:03;14.20;;;8.10;;
3683;SDS011;1858;48.716;9.648;2023-02-11T05:27:31;16.43;;;7.73;;
3683;SDS011;1858;48.716;9.648;2023-02-11T05:30:00;13.50;;;6.80;;
3683;SDS011;1858;48.716;9.648;2023-02-11T05:32:28;18.97;;;9.00;;
3683;SDS011;1858;48.716;9.648;2023-02-11T05:34:57;11.73;;;6.57;;
3683;SDS011;1858;48.716;9.648;2023-02-11T05:37:25;18.73;;;10.07;;
3683;SDS011;1858;48.716;9.648;2023-02-11T05:39:54;15.93;;;8.30;;
3683;SDS011;1858;48.716;9.648;2023-02-11T05:42:22;19.10;;;8.93;;
3683;SDS011;1858;48.716;9.648;2023-02-11T05:44:50;14.00;;;7.17;;
3683;SDS011;1858;48.716;9.648;2023-02-11T05:47:19;16.63;;;9.27;;
3683;SDS011;1858;48.716;9.648;2023-02-11T05:49:47;19.47;;;9.97;;
3683;SDS011;1858;48.716;9.648;2023-02-11T05:52:16;18.50;;;8.97;;
3683;SDS011;1858;48.716;9.648;2023-02-11T05:54:45;16.77;;;9.20;;
3683;SDS011;1858;48.716;9.648;2023-02-11T05:57:13;9.97;;;6.30;;
3683;SDS011;1858;48.716;9.648;2023-02-11T05:59:42;15.90;;;8.57;;
3683;SDS011;1858;48.716;9.648;2023-02-11T06:02:11;17.30;;;9.13;;
3683;SDS011;1858;48.716;9.648;2023-02-11T06:04:39;14.73;;;10.40;;
3683;SDS011;1858;48.716;9.648;2023-02-11T06:07:08;14.20;;;8.00;;
3683;SDS011;1858;48.716;9.648;2023-02-11T06:09:36;12.70;;;8.30;;
3683;SDS011;1858;48.716;9.648;2023-02-11T06:12:05;15.53;;;8.63;;
3683;SDS011;1858;48.716;9.648;2023-02-11T06:14:33;17.93;;;9.53;;
3683;SDS011;1858;48.716;9.648;2023-02-11T06:17:01;13.87;;;8.13;;
3683;SDS011;1858;48.716;9.648;2023-02-11T06:19:30;16.50;;;9.37;;
3683;SDS011;1858;48.716;9.648;2023-02-11T06:21:59;7.53;;;5.50;;
3683;SDS011;1858;48.716;9.648;2023-02-11T06:24:27;15.63;;;8.97;;
3683;SDS011;1858;48.716;9.648;2023-02-11T06:26:55;18.80;;;9.27;;
3683;SDS011;1858;48.716;9.648;2023-02-11T06:29:24;15.13;;;7.00;;
3683;SDS011;1858;48.716;9.648;2023-02-11T06:31:52;14.53;;;8.03;;
3683;SDS011;1858;48.716;9.648;2023-02-11T06:34:21;13.20;;;8.73;;
3683;SDS011;1858;48.716;9.648;2023-02-11T06:36:49;16.90;;;8.27;;
3683;SDS011;1858;48.716;9.648;2023-02-11T06:39:18;20.40;;;7.53;;
3683;SDS011;1858;48.716;9.648;2023-02-11T06:41:46;11.97;;;7.53;;
3683;SDS011;1858;48.716;9.648;2023-02-11T06:44:14;21.33;;;6.47;;
3683;SDS011;1858;48.716;9.648;2023-02-11T06:46:43;10.07;;;6.47;;
3683;SDS011;1858;48.716;9.648;2023-02-11T06:49:11;30.77;;;9.70;;
3683;SDS011;1858;48.716;9.648;2023-02-11T06:51:40;15.13;;;7.87;;
3683;SDS011;1858;48.716;9.648;2023-02-11T06:54:10;21.03;;;7.97;;
3683;SDS011;1858;48.716;9.648;2023-02-11T06:56:39;20.90;;;9.33;;
3683;SDS011;1858;48.716;9.648;2023-02-11T06:59:09;18.53;;;8.70;;
3683;SDS011;1858;48.716;9.648;2023-02-11T07:01:39;13.17;;;7.33;;
3683;SDS011;1858;48.716;9.648;2023-02-11T07:04:08;16.03;;;8.40;;
3683;SDS011;1858;48.716;9.648;2023-02-11T07:06:36;10.70;;;7.10;;
3683;SDS011;1858;48.716;9.648;2023-02-11T07:09:05;21.40;;;9.63;;
3683;SDS011;1858;48.716;9.648;2023-02-11T07:11:34;16.00;;;9.50;;
3683;SDS011;1858;48.716;9.648;2023-02-11T07:14:04;23.93;;;9.67;;
3683;SDS011;1858;48.716;9.648;2023-02-11T07:16:34;17.40;;;12.40;;
3683;SDS011;1858;48.716;9.648;2023-02-11T07:19:03;19.13;;;9.90;;
3683;SDS011;1858;48.716;9.648;2023-02-11T07:21:32;16.97;;;10.23;;
3683;SDS011;1858;48.716;9.648;2023-02-11T07:24:00;22.33;;;9.50;;
3683;SDS011;1858;48.716;9.648;2023-02-11T07:26:30;16.57;;;9.27;;
3683;SDS011;1858;48.716;9.648;2023-02-11T07:28:59;17.37;;;7.70;;
3683;SDS011;1858;48.716;9.648;2023-02-11T07:31:28;17.80;;;9.80;;
3683;SDS011;1858;48.716;9.648;2023-02-11T07:33:58;13.13;;;8.63;;
3683;SDS011;1858;48.716;9.648;2023-02-11T07:36:29;19.87;;;7.97;;
3683;SDS011;1858;48.716;9.648;2023-02-11T07:38:57;22.10;;;10.40;;
3683;SDS011;1858;48.716;9.648;2023-02-11T07:41:26;13.33;;;7.83;;
3683;SDS011;1858;48.716;9.648;2023-02-11T07:43:55;15.50;;;8.60;;
3683;SDS011;1858;48.716;9.648;2023-02-11T07:46:24;24.00;;;10.60;;
3683;SDS011;1858;48.716;9.648;2023-02-11T07:48:54;13.20;;;7.70;;
3683;SDS011;1858;48.716;9.648;2023-02-11T07:51:26;22.00;;;11.67;;
3683;SDS011;1858;48.716;9.648;2023-02-11T07:53:56;19.00;;;9.53;;
3683;SDS011;1858;48.716;9.648;2023-02-11T07:56:26;14.27;;;7.73;;
3683;SDS011;1858;48.716;9.648;2023-02-11T07:58:57;18.40;;;10.53;;
3683;SDS011;1858;48.716;9.648;2023-02-11T08:01:29;17.47;;;9.57;;
3683;SDS011;1858;48.716;9.648;2023-02-11T08:03:58;20.27;;;9.80;;
3683;SDS011;1858;48.716;9.648;2023-02-11T08:06:29;18.67;;;11.17;;
3683;SDS011;1858;48.716;9.648;2023-02-11T08:09:03;14.70;;;8.73;;
3683;SDS011;1858;48.716;9.648;2023-02-11T08:11:33;16.00;;;9.30;;
3683;SDS011;1858;48.716;9.648;2023-02-11T08:14:01;19.80;;;10.37;;
3683;SDS011;1858;48.716;9.648;2023-02-11T08:16:33;19.73;;;8.30;;
3683;SDS011;1858;48.716;9.648;2023-02-11T08:19:05;18.93;;;8.30;;
3683;SDS011;1858;48.716;9.648;2023-02-11T08:21:36;21.10;;;10.77;;
3683;SDS011;1858;48.716;9.648;2023-02-11T08:24:05;18.40;;;8.80;;
3683;SDS011;1858;48.716;9.648;2023-02-11T08:26:34;11.70;;;7.87;;
3683;SDS011;1858;48.716;9.648;2023-02-11T08:29:08;19.23;;;10.70;;
3683;SDS011;1858;48.716;9.648;2023-02-11T08:31:39;19.10;;;9.30;;
3683;SDS011;1858;48.716;9.648;2023-02-11T08:34:10;18.60;;;11.07;;
3683;SDS011;1858;48.716;9.648;2023-02-11T08:36:41;15.43;;;8.50;;
3683;SDS011;1858;48.716;9.648;2023-02-11T08:39:20;13.77;;;7.30;;
3683;SDS011;1858;48.716;9.648;2023-02-11T08:41:50;21.20;;;9.97;;
3683;SDS011;1858;48.716;9.648;2023-02-11T08:44:22;14.83;;;9.07;;
3683;SDS011;1858;48.716;9.648;2023-02-11T08:46:51;17.33;;;7.90;;
3683;SDS011;1858;48.716;9.648;2023-02-11T08:49:20;12.30;;;7.63;;
3683;SDS011;1858;48.716;9.648;2023-02-11T08:51:50;14.53;;;7.40;;
3683;SDS011;1858;48.716;9.648;2023-02-11T08:57:07;15.00;;;8.80;;
3683;SDS011;1858;48.716;9.648;2023-02-11T08:59:36;17.20;;;8.90;;
3683;SDS011;1858;48.716;9.648;2023-02-11T09:02:05;11.87;;;7.67;;
3683;SDS011;1858;48.716;9.648;2023-02-11T09:04:35;14.37;;;7.77;;
3683;SDS011;1858;48.716;9.648;2023-02-11T09:07:04;14.90;;;8.23;;
3683;SDS011;1858;48.716;9.648;2023-02-11T09:09:32;20.00;;;11.00;;
3683;SDS011;1858;48.716;9.648;2023-02-11T09:12:00;15.33;;;9.03;;
3683;SDS011;1858;48.716;9.648;2023-02-11T09:17:16;23.63;;;10.90;;
3683;SDS011;1858;48.716;9.648;2023-02-11T09:19:45;18.73;;;11.30;;
3683;SDS011;1858;48.716;9.648;2023-02-11T09:22:13;27.13;;;10.13;;
3683;SDS011;1858;48.716;9.648;2023-02-11T09:25:09;17.33;;;9.10;;
3683;SDS011;1858;48.716;9.648;2023-02-11T09:31:13;24.63;;;9.10;;
3683;SDS011;1858;48.716;9.648;2023-02-11T09:33:44;16.23;;;8.17;;
3683;SDS011;1858;48.716;9.648;2023-02-11T09:36:17;17.17;;;7.57;;
3683;SDS011;1858;48.716;9.648;2023-02-11T09:39:06;18.97;;;9.10;;
3683;SDS011;1858;48.716;9.648;2023-02-11T09:44:31;13.93;;;7.93;;
3683;SDS011;1858;48.716;9.648;2023-02-11T09:46:58;19.33;;;9.30;;
3683;SDS011;1858;48.716;9.648;2023-02-11T09:49:44;18.47;;;8.73;;
3683;SDS011;1858;48.716;9.648;2023-02-11T09:55:20;15.30;;;8.77;;
3683;SDS011;1858;48.716;9.648;2023-02-11T09:57:59;17.02;;;9.40;;
3683;SDS011;1858;48.716;9.648;2023-02-11T10:00:51;15.63;;;8.97;;
3683;SDS011;1858;48.716;9.648;2023-02-11T10:26:44;18.10;;;9.43;;
3683;SDS011;1858;48.716;9.648;2023-02-11T10:29:32;21.30;;;10.80;;
3683;SDS011;1858;48.716;9.648;2023-02-11T10:32:03;13.93;;;7.70;;
3683;SDS011;1858;48.716;9.648;2023-02-11T10:34:34;17.60;;;9.23;;
3683;SDS011;1858;48.716;9.648;2023-02-11T10:37:08;15.30;;;6.80;;
3683;SDS011;1858;48.716;9.648;2023-02-11T10:39:39;13.27;;;6.60;;
3683;SDS011;1858;48.716;9.648;2023-02-11T10:42:09;18.10;;;7.43;;
3683;SDS011;1858;48.716;9.648;2023-02-11T10:44:47;15.70;;;7.00;;
3683;SDS011;1858;48.716;9.648;2023-02-11T10:47:19;12.30;;;5.90;;
3683;SDS011;1858;48.716;9.648;2023-02-11T10:49:50;13.30;;;6.57;;
3683;SDS011;1858;48.716;9.648;2023-02-11T10:52:31;21.00;;;7.23;;
3683;SDS011;1858;48.716;9.648;2023-02-11T10:57:58;16.03;;;5.53;;
3683;SDS011;1858;48.716;9.648;2023-02-11T11:00:39;10.37;;;5.60;;
3683;SDS011;1858;48.716;9.648;2023-02-11T11:03:38;16.67;;;7.20;;
3683;SDS011;1858;48.716;9.648;2023-02-11T11:06:05;33.17;;;15.93;;
3683;SDS011;1858;48.716;9.648;2023-02-11T11:11:24;23.30;;;14.70;;
3683;SDS011;1858;48.716;9.648;2023-02-11T11:13:59;14.00;;;8.27;;
3683;SDS011;1858;48.716;9.648;2023-02-11T11:16:32;10.93;;;6.37;;
3683;SDS011;1858;48.716;9.648;2023-02-11T11:19:22;13.80;;;7.00;;
3683;SDS011;1858;48.716;9.648;2023-02-11T11:21:52;11.70;;;6.53;;
3683;SDS011;1858;48.716;9.648;2023-02-11T11:24:44;11.87;;;6.00;;
3683;SDS011;1858;48.716;9.648;2023-02-11T11:27:16;14.30;;;6.27;;
3683;SDS011;1858;48.716;9.648;2023-02-11T11:29:55;9.07;;;5.07;;
3683;SDS011;1858;48.716;9.648;2023-02-11T11:32:21;10.47;;;5.17;;
3683;SDS011;1858;48.716;9.648;2023-02-11T11:34:58;11.17;;;6.20;;
3683;SDS011;1858;48.716;9.648;2023-02-11T11:37:32;10.30;;;6.47;;
3683;SDS011;1858;48.716;9.648;2023-02-11T11:40:00;11.60;;;5.87;;
3683;SDS011;1858;48.716;9.648;2023-02-11T11:42:41;17.77;;;8.63;;
3683;SDS011;1858;48.716;9.648;2023-02-11T11:47:51;10.97;;;6.10;;
3683;SDS011;1858;48.716;9.648;2023-02-11T11:50:51;15.47;;;5.93;;
3683;SDS011;1858;48.716;9.648;2023-02-11T11:53:30;10.00;;;5.57;;
3683;SDS011;1858;48.716;9.648;2023-02-11T11:56:05;9.13;;;5.50;;
3683;SDS011;1858;48.716;9.648;2023-02-11T11:58:34;11.43;;;6.37;;
3683;SDS011;1858;48.716;9.648;2023-02-11T12:10:43;14.97;;;6.77;;
3683;SDS011;1858;48.716;9.648;2023-02-11T12:38:50;13.90;;;7.60;;
3683;SDS011;1858;48.716;9.648;2023-02-11T12:47:59;8.27;;;3.73;;
3683;SDS011;1858;48.716;9.648;2023-02-11T12:54:06;10.27;;;4.70;;
3683;SDS011;1858;48.716;9.648;2023-02-11T12:59:38;36.03;;;14.27;;
3683;SDS011;1858;48.716;9.648;2023-02-11T13:08:39;9.80;;;4.70;;
3683;SDS011;1858;48.716;9.648;2023-02-11T13:11:11;13.13;;;5.50;;
3683;SDS011;1858;48.716;9.648;2023-02-11T13:16:49;13.00;;;7.73;;
3683;SDS011;1858;48.716;9.648;2023-02-11T13:19:26;12.17;;;6.63;;
3683;SDS011;1858;48.716;9.648;2023-02-11T13:27:53;8.23;;;4.70;;
3683;SDS011;1858;48.716;9.648;2023-02-11T13:30:39;19.50;;;10.13;;
3683;SDS011;1858;48.716;9.648;2023-02-11T13:36:20;9.23;;;3.77;;
3683;SDS011;1858;48.716;9.648;2023-02-11T13:39:09;7.40;;;2.90;;
3683;SDS011;1858;48.716;9.648;2023-02-11T13:41:38;6.43;;;3.30;;
3683;SDS011;1858;48.716;9.648;2023-02-11T13:47:13;7.70;;;3.20;;
3683;SDS011;1858;48.716;9.648;2023-02-11T13:53:10;8.13;;;3.70;;
3683;SDS011;1858;48.716;9.648;2023-02-11T13:58:45;5.37;;;2.97;;
3683;SDS011;1858;48.716;9.648;2023-02-11T14:01:10;13.70;;;6.77;;
3683;SDS011;1858;48.716;9.648;2023-02-11T14:03:40;10.07;;;5.77;;
3683;SDS011;1858;48.716;9.648;2023-02-11T14:06:29;6.97;;;3.20;;
3683;SDS011;1858;48.716;9.648;2023-02-11T14:13:18;7.50;;;2.53;;
3683;SDS011;1858;48.716;9.648;2023-02-11T14:15:17;5.23;;;2.63;;
3683;SDS011;1858;48.716;9.648;2023-02-11T14:21:09;6.60;;;2.30;;
3683;SDS011;1858;48.716;9.648;2023-02-11T14:32:29;7.73;;;2.80;;
3683;SDS011;1858;48.716;9.648;2023-02-11T14:35:11;9.77;;;3.37;;
3683;SDS011;1858;48.716;9.648;2023-02-11T14:37:59;5.97;;;3.80;;
3683;SDS011;1858;48.716;9.648;2023-02-11T14:43:29;10.60;;;3.83;;
3683;SDS011;1858;48.716;9.648;2023-02-11T14:46:01;9.17;;;3.60;;
3683;SDS011;1858;48.716;9.648;2023-02-11T14:48:31;7.20;;;3.33;;
3683;SDS011;1858;48.716;9.648;2023-02-11T14:51:06;11.03;;;3.77;;
3683;SDS011;1858;48.716;9.648;2023-02-11T14:53:36;9.03;;;2.60;;
3683;SDS011;1858;48.716;9.648;2023-02-11T14:56:18;6.27;;;3.10;;
3683;SDS011;1858;48.716;9.648;2023-02-11T14:59:17;6.00;;;4.40;;
3683;SDS011;1858;48.716;9.648;2023-02-11T15:01:48;5.90;;;3.03;;
3683;SDS011;1858;48.716;9.648;2023-02-11T15:04:23;7.90;;;3.60;;
3683;SDS011;1858;48.716;9.648;2023-02-11T15:06:58;6.23;;;3.50;;
3683;SDS011;1858;48.716;9.648;2023-02-11T15:09:50;5.63;;;2.80;;
3683;SDS011;1858;48.716;9.648;2023-02-11T15:12:25;10.53;;;4.70;;
3683;SDS011;1858;48.716;9.648;2023-02-11T15:14:52;5.93;;;3.37;;
3683;SDS011;1858;48.716;9.648;2023-02-11T15:17:23;9.77;;;5.23;;
3683;SDS011;1858;48.716;9.648;2023-02-11T15:19:55;12.27;;;3.80;;
3683;SDS011;1858;48.716;9.648;2023-02-11T15:22:27;6.43;;;3.13;;
3683;SDS011;1858;48.716;9.648;2023-02-11T15:24:59;6.47;;;3.00;;
3683;SDS011;1858;48.716;9.648;2023-02-11T15:27:39;5.93;;;2.70;;
3683;SDS011;1858;48.716;9.648;2023-02-11T15:32:54;6.63;;;3.40;;
3683;SDS011;1858;48.716;9.648;2023-02-11T15:35:27;7.13;;;3.67;;
3683;SDS011;1858;48.716;9.648;2023-02-11T15:38:00;9.40;;;3.90;;
3683;SDS011;1858;48.716;9.648;2023-02-11T15:40:34;7.17;;;3.70;;
3683;SDS011;1858;48.716;9.648;2023-02-11T15:43:04;6.43;;;3.10;;
3683;SDS011;1858;48.716;9.648;2023-02-11T15:45:43;7.77;;;3.30;;
3683;SDS011;1858;48.716;9.648;2023-02-11T15:48:21;11.57;;;3.80;;
3683;SDS011;1858;48.716;9.648;2023-02-11T15:51:17;8.00;;;3.60;;
3683;SDS011;1858;48.716;9.648;2023-02-11T15:53:57;8.53;;;3.55;;
3683;SDS011;1858;48.716;9.648;2023-02-11T15:56:28;5.60;;;2.60;;
3683;SDS011;1858;48.716;9.648;2023-02-11T16:02:21;7.90;;;4.03;;
3683;SDS011;1858;48.716;9.648;2023-02-11T16:05:22;11.03;;;3.40;;
3683;SDS011;1858;48.716;9.648;2023-02-11T16:07:55;10.53;;;4.40;;
3683;SDS011;1858;48.716;9.648;2023-02-11T16:10:25;6.20;;;3.70;;
3683;SDS011;1858;48.716;9.648;2023-02-11T16:12:58;7.00;;;3.10;;
3683;SDS011;1858;48.716;9.648;2023-02-11T16:15:40;6.70;;;3.40;;
3683;SDS011;1858;48.716;9.648;2023-02-11T16:21:20;10.10;;;4.10;;
3683;SDS011;1858;48.716;9.648;2023-02-11T16:23:59;12.73;;;6.40;;
3683;SDS011;1858;48.716;9.648;2023-02-11T16:26:39;14.30;;;5.20;;
3683;SDS011;1858;48.716;9.648;2023-02-11T16:29:15;8.13;;;3.63;;
3683;SDS011;1858;48.716;9.648;2023-02-11T16:32:05;12.53;;;4.53;;
3683;SDS011;1858;48.716;9.648;2023-02-11T16:34:35;8.80;;;5.17;;
3683;SDS011;1858;48.716;9.648;2023-02-11T16:37:04;9.47;;;4.90;;
3683;SDS011;1858;48.716;9.648;2023-02-11T16:39:33;6.53;;;3.30;;
3683;SDS011;1858;48.716;9.648;2023-02-11T16:42:03;9.57;;;4.40;;
3683;SDS011;1858;48.716;9.648;2023-02-11T16:44:50;8.87;;;4.40;;
3683;SDS011;1858;48.716;9.648;2023-02-11T16:47:21;12.53;;;3.50;;
3683;SDS011;1858;48.716;9.648;2023-02-11T17:01:14;11.03;;;4.30;;
3683;SDS011;1858;48.716;9.648;2023-02-11T17:03:42;8.53;;;4.27;;
3683;SDS011;1858;48.716;9.648;2023-02-11T17:06:11;11.00;;;4.30;;
3683;SDS011;1858;48.716;9.648;2023-02-11T17:08:40;8.97;;;3.87;;
3683;SDS011;1858;48.716;9.648;2023-02-11T17:11:08;9.23;;;4.80;;
3683;SDS011;1858;48.716;9.648;2023-02-11T17:13:37;12.20;;;4.40;;
3683;SDS011;1858;48.716;9.648;2023-02-11T17:16:16;9.40;;;5.40;;
3683;SDS011;1858;48.716;9.648;2023-02-11T17:18:47;8.53;;;5.07;;
3683;SDS011;1858;48.716;9.648;2023-02-11T17:21:16;10.43;;;5.50;;
3683;SDS011;1858;48.716;9.648;2023-02-11T17:23:44;8.77;;;5.37;;
3683;SDS011;1858;48.716;9.648;2023-02-11T17:26:12;11.23;;;5.30;;
3683;SDS011;1858;48.716;9.648;2023-02-11T17:28:41;9.53;;;4.87;;
3683;SDS011;1858;48.716;9.648;2023-02-11T17:31:09;12.43;;;6.43;;
3683;SDS011;1858;48.716;9.648;2023-02-11T17:33:38;10.63;;;5.87;;
3683;SDS011;1858;48.716;9.648;2023-02-11T17:38:56;8.67;;;5.23;;
3683;SDS011;1858;48.716;9.648;2023-02-11T17:41:25;7.23;;;3.47;;
3683;SDS011;1858;48.716;9.648;2023-02-11T17:43:56;13.33;;;6.50;;
3683;SDS011;1858;48.716;9.648;2023-02-11T17:46:24;11.37;;;5.00;;
3683;SDS011;1858;48.716;9.648;2023-02-11T17:48:56;9.67;;;5.20;;
3683;SDS011;1858;48.716;9.648;2023-02-11T17:51:31;12.83;;;5.73;;
3683;SDS011;1858;48.716;9.648;2023-02-11T17:54:03;7.30;;;5.07;;
3683;SDS011;1858;48.716;9.648;2023-02-11T17:57:11;11.13;;;5.60;;
3683;SDS011;1858;48.716;9.648;2023-02-11T17:59:40;9.10;;;4.87;;
3683;SDS011;1858;48.716;9.648;2023-02-11T18:02:09;12.20;;;6.77;;
3683;SDS011;1858;48.716;9.648;2023-02-11T18:04:38;9.50;;;5.17;;
3683;SDS011;1858;48.716;9.648;2023-02-11T18:07:07;7.97;;;3.93;;
3683;SDS011;1858;48.716;9.648;2023-02-11T18:09:36;15.07;;;6.43;;
3683;SDS011;1858;48.716;9.648;2023-02-11T18:12:06;8.37;;;5.30;;
3683;SDS011;1858;48.716;9.648;2023-02-11T18:14:36;11.07;;;6.77;;
3683;SDS011;1858;48.716;9.648;2023-02-11T18:17:06;11.07;;;5.97;;
3683;SDS011;1858;48.716;9.648;2023-02-11T18:19:34;9.13;;;5.27;;
3683;SDS011;1858;48.716;9.648;2023-02-11T18:22:03;10.93;;;4.70;;
3683;SDS011;1858;48.716;9.648;2023-02-11T18:24:31;15.13;;;6.67;;
3683;SDS011;1858;48.716;9.648;2023-02-11T18:27:00;10.50;;;5.53;;
3683;SDS011;1858;48.716;9.648;2023-02-11T18:29:28;11.53;;;5.47;;
3683;SDS011;1858;48.716;9.648;2023-02-11T18:31:56;12.70;;;5.97;;
3683;SDS011;1858;48.716;9.648;2023-02-11T18:34:25;15.80;;;7.50;;
3683;SDS011;1858;48.716;9.648;2023-02-11T18:36:54;13.83;;;5.40;;
3683;SDS011;1858;48.716;9.648;2023-02-11T18:39:22;11.97;;;6.00;;
3683;SDS011;1858;48.716;9.648;2023-02-11T18:41:55;10.70;;;5.23;;
3683;SDS011;1858;48.716;9.648;2023-02-11T18:44:46;10.33;;;7.23;;
3683;SDS011;1858;48.716;9.648;2023-02-11T18:47:15;12.13;;;6.27;;
3683;SDS011;1858;48.716;9.648;2023-02-11T18:49:43;12.27;;;5.73;;
3683;SDS011;1858;48.716;9.648;2023-02-11T18:52:11;8.40;;;4.60;;
3683;SDS011;1858;48.716;9.648;2023-02-11T18:54:40;11.37;;;5.53;;
3683;SDS011;1858;48.716;9.648;2023-02-11T18:57:08;13.57;;;5.90;;
3683;SDS011;1858;48.716;9.648;2023-02-11T18:59:36;11.83;;;5.73;;
3683;SDS011;1858;48.716;9.648;2023-02-11T19:02:05;12.20;;;6.13;;
3683;SDS011;1858;48.716;9.648;2023-02-11T19:04:34;9.33;;;5.50;;